sensor_id;sensor_type;location;lat;lon;timestamp;P1;durP1;ratioP1;P2;durP2;ratioP2
3911;SDS011;1971;51.778;10.330;2023-12-20T00:00:54;130.37;;;9.03;;
3911;SDS011;1971;51.778;10.330;2023-12-20T00:03:24;472.80;;;25.30;;
3911;SDS011;1971;51.778;10.330;2023-12-20T00:05:57;134.53;;;11.30;;
3911;SDS011;1971;51.778;10.330;2023-12-20T00:08:27;464.87;;;34.83;;
3911;SDS011;1971;51.778;10.330;2023-12-20T00:11:00;108.23;;;8.53;;
3911;SDS011;1971;51.778;10.330;2023-12-20T00:13:31;284.10;;;18.60;;
3911;SDS011;1971;51.778;10.330;2023-12-20T00:16:01;361.63;;;25.13;;
3911;SDS011;1971;51.778;10.330;2023-12-20T00:18:31;210.10;;;14.50;;
3911;SDS011;1971;51.778;10.330;2023-12-20T00:21:04;146.47;;;11.07;;
3911;SDS011;1971;51.778;10.330;2023-12-20T00:23:34;315.67;;;22.43;;
3911;SDS011;1971;51.778;10.330;2023-12-20T00:26:06;240.70;;;24.13;;
3911;SDS011;1971;51.778;10.330;2023-12-20T00:28:37;116.37;;;10.70;;
3911;SDS011;1971;51.778;10.330;2023-12-20T00:31:07;196.50;;;19.27;;
3911;SDS011;1971;51.778;10.330;2023-12-20T00:33:37;233.30;;;21.37;;
3911;SDS011;1971;51.778;10.330;2023-12-20T00:36:11;240.27;;;23.83;;
3911;SDS011;1971;51.778;10.330;2023-12-20T00:38:41;229.03;;;19.37;;
3911;SDS011;1971;51.778;10.330;2023-12-20T00:41:14;152.17;;;10.40;;
3911;SDS011;1971;51.778;10.330;2023-12-20T00:43:44;157.33;;;15.23;;
3911;SDS011;1971;51.778;10.330;2023-12-20T00:46:14;131.93;;;11.10;;
3911;SDS011;1971;51.778;10.330;2023-12-20T00:48:45;166.67;;;10.37;;
3911;SDS011;1971;51.778;10.330;2023-12-20T00:51:15;185.57;;;12.33;;
3911;SDS011;1971;51.778;10.330;2023-12-20T00:53:45;151.53;;;13.30;;
3911;SDS011;1971;51.778;10.330;2023-12-20T00:56:19;160.17;;;11.80;;
3911;SDS011;1971;51.778;10.330;2023-12-20T00:58:50;62.37;;;5.07;;
3911;SDS011;1971;51.778;10.330;2023-12-20T01:01:20;150.17;;;11.57;;
3911;SDS011;1971;51.778;10.330;2023-12-20T01:03:51;195.47;;;13.53;;
3911;SDS011;1971;51.778;10.330;2023-12-20T01:06:22;169.97;;;12.53;;
3911;SDS011;1971;51.778;10.330;2023-12-20T01:08:52;241.10;;;18.87;;
3911;SDS011;1971;51.778;10.330;2023-12-20T01:11:25;173.93;;;17.80;;
3911;SDS011;1971;51.778;10.330;2023-12-20T01:13:55;111.67;;;10.40;;
3911;SDS011;1971;51.778;10.330;2023-12-20T01:16:25;228.50;;;17.43;;
3911;SDS011;1971;51.778;10.330;2023-12-20T01:18:55;198.23;;;13.07;;
3911;SDS011;1971;51.778;10.330;2023-12-20T01:21:25;156.97;;;10.60;;
3911;SDS011;1971;51.778;10.330;2023-12-20T01:23:55;82.57;;;7.30;;
3911;SDS011;1971;51.778;10.330;2023-12-20T01:26:28;160.10;;;10.60;;
3911;SDS011;1971;51.778;10.330;2023-12-20T01:28:58;114.77;;;8.73;;
3911;SDS011;1971;51.778;10.330;2023-12-20T01:31:29;130.07;;;9.97;;
3911;SDS011;1971;51.778;10.330;2023-12-20T01:33:59;177.27;;;11.90;;
3911;SDS011;1971;51.778;10.330;2023-12-20T01:36:30;174.50;;;13.63;;
3911;SDS011;1971;51.778;10.330;2023-12-20T01:39:00;287.13;;;20.07;;
3911;SDS011;1971;51.778;10.330;2023-12-20T01:41:41;206.43;;;13.53;;
3911;SDS011;1971;51.778;10.330;2023-12-20T01:44:12;208.97;;;12.90;;
3911;SDS011;1971;51.778;10.330;2023-12-20T01:46:42;66.67;;;6.53;;
3911;SDS011;1971;51.778;10.330;2023-12-20T01:49:12;64.33;;;9.77;;
3911;SDS011;1971;51.778;10.330;2023-12-20T01:51:45;203.67;;;16.33;;
3911;SDS011;1971;51.778;10.330;2023-12-20T01:54:16;154.60;;;14.50;;
3911;SDS011;1971;51.778;10.330;2023-12-20T01:56:49;296.50;;;30.27;;
3911;SDS011;1971;51.778;10.330;2023-12-20T01:59:20;157.17;;;23.23;;
3911;SDS011;1971;51.778;10.330;2023-12-20T02:01:53;109.90;;;15.50;;
3911;SDS011;1971;51.778;10.330;2023-12-20T02:04:24;11.87;;;5.13;;
3911;SDS011;1971;51.778;10.330;2023-12-20T02:06:54;8.30;;;5.83;;
3911;SDS011;1971;51.778;10.330;2023-12-20T02:09:27;54.60;;;11.63;;
3911;SDS011;1971;51.778;10.330;2023-12-20T02:12:00;67.67;;;13.30;;
3911;SDS011;1971;51.778;10.330;2023-12-20T02:14:30;8.53;;;6.87;;
3911;SDS011;1971;51.778;10.330;2023-12-20T02:17:00;11.73;;;9.17;;
3911;SDS011;1971;51.778;10.330;2023-12-20T02:19:31;8.10;;;6.23;;
3911;SDS011;1971;51.778;10.330;2023-12-20T02:22:07;6.23;;;5.10;;
3911;SDS011;1971;51.778;10.330;2023-12-20T02:24:38;9.53;;;8.40;;
3911;SDS011;1971;51.778;10.330;2023-12-20T02:27:08;7.90;;;5.63;;
3911;SDS011;1971;51.778;10.330;2023-12-20T02:29:38;6.87;;;4.93;;
3911;SDS011;1971;51.778;10.330;2023-12-20T02:32:08;8.13;;;7.20;;
3911;SDS011;1971;51.778;10.330;2023-12-20T02:34:39;7.10;;;5.90;;
3911;SDS011;1971;51.778;10.330;2023-12-20T02:37:12;6.70;;;5.30;;
3911;SDS011;1971;51.778;10.330;2023-12-20T02:39:42;8.90;;;5.50;;
3911;SDS011;1971;51.778;10.330;2023-12-20T02:42:12;9.07;;;8.07;;
3911;SDS011;1971;51.778;10.330;2023-12-20T02:44:42;19.70;;;9.80;;
3911;SDS011;1971;51.778;10.330;2023-12-20T02:47:12;11.27;;;6.80;;
3911;SDS011;1971;51.778;10.330;2023-12-20T02:49:43;29.53;;;11.60;;
3911;SDS011;1971;51.778;10.330;2023-12-20T02:52:16;13.33;;;9.73;;
3911;SDS011;1971;51.778;10.330;2023-12-20T02:54:46;9.60;;;8.10;;
3911;SDS011;1971;51.778;10.330;2023-12-20T02:57:16;6.77;;;5.10;;
3911;SDS011;1971;51.778;10.330;2023-12-20T02:59:46;8.57;;;7.73;;
3911;SDS011;1971;51.778;10.330;2023-12-20T03:02:17;10.03;;;7.80;;
3911;SDS011;1971;51.778;10.330;2023-12-20T03:04:47;7.30;;;5.50;;
3911;SDS011;1971;51.778;10.330;2023-12-20T03:07:19;10.30;;;7.60;;
3911;SDS011;1971;51.778;10.330;2023-12-20T03:09:50;9.30;;;7.73;;
3911;SDS011;1971;51.778;10.330;2023-12-20T03:12:40;7.43;;;5.77;;
3911;SDS011;1971;51.778;10.330;2023-12-20T03:15:10;8.70;;;5.93;;
3911;SDS011;1971;51.778;10.330;2023-12-20T03:17:40;12.50;;;8.27;;
3911;SDS011;1971;51.778;10.330;2023-12-20T03:20:11;9.60;;;8.23;;
3911;SDS011;1971;51.778;10.330;2023-12-20T03:22:41;9.80;;;7.60;;
3911;SDS011;1971;51.778;10.330;2023-12-20T03:25:12;9.93;;;8.77;;
3911;SDS011;1971;51.778;10.330;2023-12-20T03:27:42;7.80;;;6.43;;
3911;SDS011;1971;51.778;10.330;2023-12-20T03:30:13;7.40;;;6.37;;
3911;SDS011;1971;51.778;10.330;2023-12-20T03:32:43;5.23;;;4.07;;
3911;SDS011;1971;51.778;10.330;2023-12-20T03:35:13;4.97;;;4.20;;
3911;SDS011;1971;51.778;10.330;2023-12-20T03:37:46;6.30;;;4.27;;
3911;SDS011;1971;51.778;10.330;2023-12-20T03:40:17;5.77;;;4.00;;
3911;SDS011;1971;51.778;10.330;2023-12-20T03:42:47;7.10;;;5.50;;
3911;SDS011;1971;51.778;10.330;2023-12-20T03:45:17;6.17;;;5.20;;
3911;SDS011;1971;51.778;10.330;2023-12-20T03:47:48;6.07;;;4.90;;
3911;SDS011;1971;51.778;10.330;2023-12-20T03:50:21;6.33;;;4.60;;
3911;SDS011;1971;51.778;10.330;2023-12-20T03:52:55;5.27;;;4.57;;
3911;SDS011;1971;51.778;10.330;2023-12-20T03:55:25;6.73;;;4.97;;
3911;SDS011;1971;51.778;10.330;2023-12-20T03:57:55;5.30;;;3.20;;
3911;SDS011;1971;51.778;10.330;2023-12-20T04:00:26;5.90;;;2.70;;
3911;SDS011;1971;51.778;10.330;2023-12-20T04:02:56;3.33;;;3.03;;
3911;SDS011;1971;51.778;10.330;2023-12-20T04:05:26;4.13;;;3.17;;
3911;SDS011;1971;51.778;10.330;2023-12-20T04:07:59;4.17;;;3.30;;
3911;SDS011;1971;51.778;10.330;2023-12-20T04:10:31;5.70;;;4.20;;
3911;SDS011;1971;51.778;10.330;2023-12-20T04:13:01;6.53;;;4.57;;
3911;SDS011;1971;51.778;10.330;2023-12-20T04:15:31;7.40;;;5.00;;
3911;SDS011;1971;51.778;10.330;2023-12-20T04:18:01;4.40;;;2.67;;
3911;SDS011;1971;51.778;10.330;2023-12-20T04:20:32;4.13;;;3.13;;
3911;SDS011;1971;51.778;10.330;2023-12-20T04:23:04;9.50;;;3.60;;
3911;SDS011;1971;51.778;10.330;2023-12-20T04:25:35;4.87;;;3.03;;
3911;SDS011;1971;51.778;10.330;2023-12-20T04:28:05;7.07;;;4.10;;
3911;SDS011;1971;51.778;10.330;2023-12-20T04:30:35;4.67;;;2.30;;
3911;SDS011;1971;51.778;10.330;2023-12-20T04:33:08;3.73;;;2.70;;
3911;SDS011;1971;51.778;10.330;2023-12-20T04:35:38;3.80;;;2.23;;
3911;SDS011;1971;51.778;10.330;2023-12-20T04:38:12;3.00;;;2.37;;
3911;SDS011;1971;51.778;10.330;2023-12-20T04:40:42;2.47;;;2.07;;
3911;SDS011;1971;51.778;10.330;2023-12-20T04:43:12;3.93;;;3.07;;
3911;SDS011;1971;51.778;10.330;2023-12-20T04:45:42;2.63;;;1.53;;
3911;SDS011;1971;51.778;10.330;2023-12-20T04:48:13;4.23;;;2.63;;
3911;SDS011;1971;51.778;10.330;2023-12-20T04:50:43;4.93;;;3.13;;
3911;SDS011;1971;51.778;10.330;2023-12-20T04:53:16;2.70;;;2.30;;
3911;SDS011;1971;51.778;10.330;2023-12-20T04:55:46;3.67;;;2.60;;
3911;SDS011;1971;51.778;10.330;2023-12-20T04:58:17;8.67;;;2.00;;
3911;SDS011;1971;51.778;10.330;2023-12-20T05:00:47;2.77;;;2.50;;
3911;SDS011;1971;51.778;10.330;2023-12-20T05:03:17;4.90;;;3.17;;
3911;SDS011;1971;51.778;10.330;2023-12-20T05:05:47;2.27;;;2.07;;
3911;SDS011;1971;51.778;10.330;2023-12-20T05:08:20;4.67;;;2.30;;
3911;SDS011;1971;51.778;10.330;2023-12-20T05:10:51;7.07;;;3.67;;
3911;SDS011;1971;51.778;10.330;2023-12-20T05:13:23;3.27;;;2.27;;
3911;SDS011;1971;51.778;10.330;2023-12-20T05:16:07;9.83;;;3.30;;
3911;SDS011;1971;51.778;10.330;2023-12-20T05:18:41;4.30;;;2.40;;
3911;SDS011;1971;51.778;10.330;2023-12-20T05:21:11;4.00;;;1.93;;
3911;SDS011;1971;51.778;10.330;2023-12-20T05:23:44;7.00;;;3.13;;
3911;SDS011;1971;51.778;10.330;2023-12-20T05:26:14;3.50;;;1.90;;
3911;SDS011;1971;51.778;10.330;2023-12-20T05:28:45;10.50;;;2.43;;
3911;SDS011;1971;51.778;10.330;2023-12-20T05:31:15;5.87;;;2.70;;
3911;SDS011;1971;51.778;10.330;2023-12-20T05:33:45;9.73;;;3.63;;
3911;SDS011;1971;51.778;10.330;2023-12-20T05:36:16;4.07;;;3.17;;
3911;SDS011;1971;51.778;10.330;2023-12-20T05:38:48;8.40;;;2.70;;
3911;SDS011;1971;51.778;10.330;2023-12-20T05:41:19;2.90;;;2.10;;
3911;SDS011;1971;51.778;10.330;2023-12-20T05:43:52;9.23;;;3.30;;
3911;SDS011;1971;51.778;10.330;2023-12-20T05:46:24;5.43;;;2.70;;
3911;SDS011;1971;51.778;10.330;2023-12-20T05:48:54;7.83;;;3.10;;
3911;SDS011;1971;51.778;10.330;2023-12-20T05:51:25;7.40;;;3.40;;
3911;SDS011;1971;51.778;10.330;2023-12-20T05:53:57;2.93;;;2.10;;
3911;SDS011;1971;51.778;10.330;2023-12-20T05:56:30;3.83;;;2.63;;
3911;SDS011;1971;51.778;10.330;2023-12-20T05:59:01;4.60;;;3.30;;
3911;SDS011;1971;51.778;10.330;2023-12-20T06:01:31;5.10;;;3.10;;
3911;SDS011;1971;51.778;10.330;2023-12-20T06:04:01;8.60;;;3.20;;
3911;SDS011;1971;51.778;10.330;2023-12-20T06:06:32;6.73;;;2.70;;
3911;SDS011;1971;51.778;10.330;2023-12-20T06:09:05;5.67;;;2.90;;
3911;SDS011;1971;51.778;10.330;2023-12-20T06:11:35;5.77;;;2.67;;
3911;SDS011;1971;51.778;10.330;2023-12-20T06:14:05;7.43;;;4.40;;
3911;SDS011;1971;51.778;10.330;2023-12-20T06:16:35;5.33;;;3.27;;
3911;SDS011;1971;51.778;10.330;2023-12-20T06:19:06;6.23;;;4.37;;
3911;SDS011;1971;51.778;10.330;2023-12-20T06:21:36;4.23;;;3.20;;
3911;SDS011;1971;51.778;10.330;2023-12-20T06:24:13;6.87;;;5.03;;
3911;SDS011;1971;51.778;10.330;2023-12-20T06:26:43;7.83;;;4.93;;
3911;SDS011;1971;51.778;10.330;2023-12-20T06:29:13;7.70;;;4.57;;
3911;SDS011;1971;51.778;10.330;2023-12-20T06:31:43;7.17;;;3.57;;
3911;SDS011;1971;51.778;10.330;2023-12-20T06:34:13;11.80;;;4.77;;
3911;SDS011;1971;51.778;10.330;2023-12-20T06:36:44;7.87;;;5.30;;
3911;SDS011;1971;51.778;10.330;2023-12-20T06:39:17;10.87;;;4.90;;
3911;SDS011;1971;51.778;10.330;2023-12-20T06:41:47;7.90;;;4.63;;
3911;SDS011;1971;51.778;10.330;2023-12-20T06:44:18;7.50;;;3.87;;
3911;SDS011;1971;51.778;10.330;2023-12-20T06:46:48;12.80;;;4.70;;
3911;SDS011;1971;51.778;10.330;2023-12-20T06:49:18;8.27;;;4.60;;
3911;SDS011;1971;51.778;10.330;2023-12-20T06:51:48;11.40;;;6.17;;
3911;SDS011;1971;51.778;10.330;2023-12-20T06:54:22;8.57;;;5.23;;
3911;SDS011;1971;51.778;10.330;2023-12-20T06:56:53;8.00;;;5.03;;
3911;SDS011;1971;51.778;10.330;2023-12-20T06:59:23;9.33;;;4.23;;
3911;SDS011;1971;51.778;10.330;2023-12-20T07:01:53;9.27;;;5.50;;
3911;SDS011;1971;51.778;10.330;2023-12-20T07:04:23;11.93;;;3.90;;
3911;SDS011;1971;51.778;10.330;2023-12-20T07:06:54;12.27;;;4.50;;
3911;SDS011;1971;51.778;10.330;2023-12-20T07:09:29;10.83;;;5.70;;
3911;SDS011;1971;51.778;10.330;2023-12-20T07:11:59;10.10;;;4.60;;
3911;SDS011;1971;51.778;10.330;2023-12-20T07:14:29;9.80;;;4.90;;
3911;SDS011;1971;51.778;10.330;2023-12-20T07:17:00;18.87;;;7.50;;
3911;SDS011;1971;51.778;10.330;2023-12-20T07:19:30;8.93;;;4.40;;
3911;SDS011;1971;51.778;10.330;2023-12-20T07:22:00;9.50;;;4.20;;
3911;SDS011;1971;51.778;10.330;2023-12-20T07:24:33;10.63;;;5.00;;
3911;SDS011;1971;51.778;10.330;2023-12-20T07:27:03;7.70;;;4.53;;
3911;SDS011;1971;51.778;10.330;2023-12-20T07:29:33;11.77;;;6.97;;
3911;SDS011;1971;51.778;10.330;2023-12-20T07:32:04;9.23;;;4.50;;
3911;SDS011;1971;51.778;10.330;2023-12-20T07:34:35;13.63;;;5.80;;
3911;SDS011;1971;51.778;10.330;2023-12-20T07:37:05;10.60;;;4.90;;
3911;SDS011;1971;51.778;10.330;2023-12-20T07:39:39;8.67;;;5.50;;
3911;SDS011;1971;51.778;10.330;2023-12-20T07:42:10;10.10;;;7.90;;
3911;SDS011;1971;51.778;10.330;2023-12-20T07:44:40;10.57;;;6.03;;
3911;SDS011;1971;51.778;10.330;2023-12-20T07:47:10;12.27;;;6.43;;
3911;SDS011;1971;51.778;10.330;2023-12-20T07:49:43;11.13;;;5.97;;
3911;SDS011;1971;51.778;10.330;2023-12-20T07:52:14;8.20;;;4.73;;
3911;SDS011;1971;51.778;10.330;2023-12-20T07:54:47;12.47;;;5.17;;
3911;SDS011;1971;51.778;10.330;2023-12-20T07:57:17;15.23;;;7.17;;
3911;SDS011;1971;51.778;10.330;2023-12-20T07:59:47;10.30;;;6.53;;
3911;SDS011;1971;51.778;10.330;2023-12-20T08:02:17;12.00;;;6.03;;
3911;SDS011;1971;51.778;10.330;2023-12-20T08:04:47;11.87;;;5.70;;
3911;SDS011;1971;51.778;10.330;2023-12-20T08:07:18;8.90;;;4.67;;
3911;SDS011;1971;51.778;10.330;2023-12-20T08:09:50;12.03;;;7.17;;
3911;SDS011;1971;51.778;10.330;2023-12-20T08:12:21;9.17;;;4.70;;
3911;SDS011;1971;51.778;10.330;2023-12-20T08:14:54;9.03;;;6.77;;
3911;SDS011;1971;51.778;10.330;2023-12-20T08:17:24;12.73;;;6.67;;
3911;SDS011;1971;51.778;10.330;2023-12-20T08:19:54;7.40;;;4.90;;
3911;SDS011;1971;51.778;10.330;2023-12-20T08:22:26;9.77;;;4.33;;
3911;SDS011;1971;51.778;10.330;2023-12-20T08:24:59;7.67;;;4.43;;
3911;SDS011;1971;51.778;10.330;2023-12-20T08:27:29;7.90;;;3.50;;
3911;SDS011;1971;51.778;10.330;2023-12-20T08:30:00;14.87;;;6.00;;
3911;SDS011;1971;51.778;10.330;2023-12-20T08:32:30;11.30;;;4.67;;
3911;SDS011;1971;51.778;10.330;2023-12-20T08:35:01;16.40;;;4.50;;
3911;SDS011;1971;51.778;10.330;2023-12-20T08:37:31;7.17;;;3.93;;
3911;SDS011;1971;51.778;10.330;2023-12-20T08:40:05;4.83;;;3.70;;
3911;SDS011;1971;51.778;10.330;2023-12-20T08:42:36;8.00;;;3.90;;
3911;SDS011;1971;51.778;10.330;2023-12-20T08:45:07;7.97;;;3.40;;
3911;SDS011;1971;51.778;10.330;2023-12-20T08:47:38;9.73;;;5.10;;
3911;SDS011;1971;51.778;10.330;2023-12-20T08:50:08;14.63;;;6.00;;
3911;SDS011;1971;51.778;10.330;2023-12-20T08:52:39;5.90;;;3.40;;
3911;SDS011;1971;51.778;10.330;2023-12-20T08:55:11;9.03;;;5.20;;
3911;SDS011;1971;51.778;10.330;2023-12-20T08:57:43;10.17;;;6.67;;
3911;SDS011;1971;51.778;10.330;2023-12-20T09:00:14;11.83;;;6.83;;
3911;SDS011;1971;51.778;10.330;2023-12-20T09:02:47;11.63;;;7.33;;
3911;SDS011;1971;51.778;10.330;2023-12-20T09:05:17;13.67;;;7.73;;
3911;SDS011;1971;51.778;10.330;2023-12-20T09:07:47;9.87;;;6.90;;
3911;SDS011;1971;51.778;10.330;2023-12-20T09:10:20;9.10;;;6.87;;
3911;SDS011;1971;51.778;10.330;2023-12-20T09:12:51;8.43;;;5.73;;
3911;SDS011;1971;51.778;10.330;2023-12-20T09:15:24;11.13;;;8.13;;
3911;SDS011;1971;51.778;10.330;2023-12-20T09:17:58;12.23;;;7.67;;
3911;SDS011;1971;51.778;10.330;2023-12-20T09:20:28;12.30;;;7.80;;
3911;SDS011;1971;51.778;10.330;2023-12-20T09:23:00;8.70;;;5.57;;
3911;SDS011;1971;51.778;10.330;2023-12-20T09:25:32;9.60;;;5.60;;
3911;SDS011;1971;51.778;10.330;2023-12-20T09:28:03;10.13;;;5.50;;
3911;SDS011;1971;51.778;10.330;2023-12-20T09:30:33;9.33;;;4.57;;
3911;SDS011;1971;51.778;10.330;2023-12-20T09:33:07;11.20;;;6.03;;
3911;SDS011;1971;51.778;10.330;2023-12-20T09:35:37;11.83;;;7.90;;
3911;SDS011;1971;51.778;10.330;2023-12-20T09:38:07;7.73;;;5.63;;
3911;SDS011;1971;51.778;10.330;2023-12-20T09:40:41;16.53;;;8.40;;
3911;SDS011;1971;51.778;10.330;2023-12-20T09:43:14;6.13;;;4.03;;
3911;SDS011;1971;51.778;10.330;2023-12-20T09:45:45;13.93;;;5.53;;
3911;SDS011;1971;51.778;10.330;2023-12-20T09:48:17;13.43;;;5.80;;
3911;SDS011;1971;51.778;10.330;2023-12-20T09:50:48;10.70;;;6.70;;
3911;SDS011;1971;51.778;10.330;2023-12-20T09:53:20;10.30;;;7.43;;
3911;SDS011;1971;51.778;10.330;2023-12-20T09:56:00;9.87;;;4.33;;
3911;SDS011;1971;51.778;10.330;2023-12-20T09:58:30;8.30;;;5.80;;
3911;SDS011;1971;51.778;10.330;2023-12-20T10:01:00;9.90;;;6.47;;
3911;SDS011;1971;51.778;10.330;2023-12-20T10:03:31;11.93;;;5.43;;
3911;SDS011;1971;51.778;10.330;2023-12-20T10:06:02;12.20;;;7.23;;
3911;SDS011;1971;51.778;10.330;2023-12-20T10:08:34;6.87;;;4.20;;
3911;SDS011;1971;51.778;10.330;2023-12-20T10:11:07;9.10;;;6.83;;
3911;SDS011;1971;51.778;10.330;2023-12-20T10:13:38;8.43;;;5.83;;
3911;SDS011;1971;51.778;10.330;2023-12-20T10:16:09;9.77;;;6.53;;
3911;SDS011;1971;51.778;10.330;2023-12-20T10:18:39;8.77;;;6.00;;
3911;SDS011;1971;51.778;10.330;2023-12-20T10:21:09;10.90;;;5.70;;
3911;SDS011;1971;51.778;10.330;2023-12-20T10:23:40;13.87;;;5.80;;
3911;SDS011;1971;51.778;10.330;2023-12-20T10:26:12;13.03;;;6.70;;
3911;SDS011;1971;51.778;10.330;2023-12-20T10:28:50;9.80;;;4.97;;
3911;SDS011;1971;51.778;10.330;2023-12-20T10:31:27;7.40;;;5.47;;
3911;SDS011;1971;51.778;10.330;2023-12-20T10:33:58;13.63;;;5.83;;
3911;SDS011;1971;51.778;10.330;2023-12-20T10:36:30;10.33;;;5.50;;
3911;SDS011;1971;51.778;10.330;2023-12-20T10:39:03;8.90;;;5.77;;
3911;SDS011;1971;51.778;10.330;2023-12-20T10:41:39;6.50;;;5.20;;
3911;SDS011;1971;51.778;10.330;2023-12-20T10:44:11;8.57;;;6.23;;
3911;SDS011;1971;51.778;10.330;2023-12-20T10:46:43;10.10;;;5.10;;
3911;SDS011;1971;51.778;10.330;2023-12-20T10:49:18;7.13;;;5.10;;
3911;SDS011;1971;51.778;10.330;2023-12-20T10:51:49;11.33;;;6.13;;
3911;SDS011;1971;51.778;10.330;2023-12-20T10:54:23;10.00;;;3.63;;
3911;SDS011;1971;51.778;10.330;2023-12-20T10:56:56;12.50;;;7.63;;
3911;SDS011;1971;51.778;10.330;2023-12-20T10:59:27;5.23;;;4.00;;
3911;SDS011;1971;51.778;10.330;2023-12-20T11:01:59;13.03;;;6.90;;
3911;SDS011;1971;51.778;10.330;2023-12-20T11:04:35;13.17;;;7.50;;
3911;SDS011;1971;51.778;10.330;2023-12-20T11:07:16;12.67;;;7.10;;
3911;SDS011;1971;51.778;10.330;2023-12-20T11:09:55;9.73;;;6.90;;
3911;SDS011;1971;51.778;10.330;2023-12-20T11:12:36;8.30;;;5.97;;
3911;SDS011;1971;51.778;10.330;2023-12-20T11:15:09;15.13;;;5.93;;
3911;SDS011;1971;51.778;10.330;2023-12-20T11:17:39;8.40;;;4.40;;
3911;SDS011;1971;51.778;10.330;2023-12-20T11:20:10;11.00;;;5.93;;
3911;SDS011;1971;51.778;10.330;2023-12-20T11:22:38;15.60;;;5.60;;
3911;SDS011;1971;51.778;10.330;2023-12-20T11:25:22;10.03;;;5.30;;
3911;SDS011;1971;51.778;10.330;2023-12-20T11:30:42;10.30;;;6.67;;
3911;SDS011;1971;51.778;10.330;2023-12-20T11:46:30;7.00;;;5.10;;
3911;SDS011;1971;51.778;10.330;2023-12-20T11:49:00;10.43;;;6.40;;
3911;SDS011;1971;51.778;10.330;2023-12-20T11:51:31;11.53;;;5.40;;
3911;SDS011;1971;51.778;10.330;2023-12-20T11:54:01;13.07;;;6.40;;
3911;SDS011;1971;51.778;10.330;2023-12-20T11:56:31;7.97;;;4.77;;
3911;SDS011;1971;51.778;10.330;2023-12-20T11:59:01;6.40;;;4.67;;
3911;SDS011;1971;51.778;10.330;2023-12-20T12:01:51;11.73;;;6.93;;
3911;SDS011;1971;51.778;10.330;2023-12-20T12:04:23;8.37;;;4.70;;
3911;SDS011;1971;51.778;10.330;2023-12-20T12:06:53;8.80;;;5.00;;
3911;SDS011;1971;51.778;10.330;2023-12-20T12:09:23;8.03;;;3.80;;
3911;SDS011;1971;51.778;10.330;2023-12-20T12:11:53;12.93;;;5.63;;
3911;SDS011;1971;51.778;10.330;2023-12-20T12:14:23;41.33;;;11.63;;
3911;SDS011;1971;51.778;10.330;2023-12-20T12:16:56;14.90;;;5.57;;
3911;SDS011;1971;51.778;10.330;2023-12-20T12:19:26;41.47;;;9.73;;
3911;SDS011;1971;51.778;10.330;2023-12-20T12:22:04;4.97;;;3.40;;
3911;SDS011;1971;51.778;10.330;2023-12-20T12:24:40;71.00;;;12.23;;
3911;SDS011;1971;51.778;10.330;2023-12-20T12:27:11;198.30;;;25.70;;
3911;SDS011;1971;51.778;10.330;2023-12-20T12:32:36;175.47;;;25.13;;
3911;SDS011;1971;51.778;10.330;2023-12-20T12:35:08;248.20;;;31.87;;
3911;SDS011;1971;51.778;10.330;2023-12-20T12:37:39;297.30;;;39.17;;
3911;SDS011;1971;51.778;10.330;2023-12-20T12:40:11;289.13;;;39.63;;
3911;SDS011;1971;51.778;10.330;2023-12-20T12:42:44;369.30;;;45.10;;
3911;SDS011;1971;51.778;10.330;2023-12-20T12:45:14;304.63;;;39.27;;
3911;SDS011;1971;51.778;10.330;2023-12-20T12:47:47;278.33;;;31.13;;
3911;SDS011;1971;51.778;10.330;2023-12-20T12:50:17;231.63;;;23.43;;
3911;SDS011;1971;51.778;10.330;2023-12-20T12:52:48;416.13;;;43.43;;
3911;SDS011;1971;51.778;10.330;2023-12-20T12:55:18;288.40;;;32.97;;
3911;SDS011;1971;51.778;10.330;2023-12-20T12:57:48;104.13;;;17.77;;
3911;SDS011;1971;51.778;10.330;2023-12-20T13:00:18;191.97;;;27.47;;
3911;SDS011;1971;51.778;10.330;2023-12-20T13:02:51;126.23;;;18.67;;
3911;SDS011;1971;51.778;10.330;2023-12-20T13:05:22;1030.87;;;104.53;;
3911;SDS011;1971;51.778;10.330;2023-12-20T13:07:52;212.10;;;29.40;;
3911;SDS011;1971;51.778;10.330;2023-12-20T13:10:22;182.50;;;29.43;;
3911;SDS011;1971;51.778;10.330;2023-12-20T13:12:52;455.53;;;44.93;;
3911;SDS011;1971;51.778;10.330;2023-12-20T13:15:22;275.93;;;39.20;;
3911;SDS011;1971;51.778;10.330;2023-12-20T13:17:55;313.27;;;41.50;;
3911;SDS011;1971;51.778;10.330;2023-12-20T13:20:25;245.30;;;33.57;;
3911;SDS011;1971;51.778;10.330;2023-12-20T13:22:55;23.17;;;9.10;;
3911;SDS011;1971;51.778;10.330;2023-12-20T13:25:25;12.33;;;9.53;;
3911;SDS011;1971;51.778;10.330;2023-12-20T13:27:55;13.80;;;10.33;;
3911;SDS011;1971;51.778;10.330;2023-12-20T13:30:26;12.23;;;10.53;;
3911;SDS011;1971;51.778;10.330;2023-12-20T13:32:58;9.90;;;8.83;;
3911;SDS011;1971;51.778;10.330;2023-12-20T13:35:28;13.90;;;9.93;;
3911;SDS011;1971;51.778;10.330;2023-12-20T13:37:58;14.20;;;9.20;;
3911;SDS011;1971;51.778;10.330;2023-12-20T13:40:29;10.67;;;9.57;;
3911;SDS011;1971;51.778;10.330;2023-12-20T13:42:59;14.40;;;9.93;;
3911;SDS011;1971;51.778;10.330;2023-12-20T13:45:30;8.10;;;7.13;;
3911;SDS011;1971;51.778;10.330;2023-12-20T13:48:03;10.83;;;7.60;;
3911;SDS011;1971;51.778;10.330;2023-12-20T13:50:34;11.13;;;9.67;;
3911;SDS011;1971;51.778;10.330;2023-12-20T13:53:04;9.67;;;8.70;;
3911;SDS011;1971;51.778;10.330;2023-12-20T13:55:34;15.80;;;7.97;;
3911;SDS011;1971;51.778;10.330;2023-12-20T13:58:04;7.50;;;5.73;;
3911;SDS011;1971;51.778;10.330;2023-12-20T14:00:34;8.03;;;6.10;;
3911;SDS011;1971;51.778;10.330;2023-12-20T14:03:07;8.47;;;5.57;;
3911;SDS011;1971;51.778;10.330;2023-12-20T14:05:37;8.37;;;5.63;;
3911;SDS011;1971;51.778;10.330;2023-12-20T14:08:07;11.23;;;6.20;;
3911;SDS011;1971;51.778;10.330;2023-12-20T14:10:38;7.70;;;5.10;;
3911;SDS011;1971;51.778;10.330;2023-12-20T14:13:08;10.90;;;7.57;;
3911;SDS011;1971;51.778;10.330;2023-12-20T14:15:38;7.53;;;6.40;;
3911;SDS011;1971;51.778;10.330;2023-12-20T14:18:10;6.50;;;4.90;;
3911;SDS011;1971;51.778;10.330;2023-12-20T14:20:41;8.80;;;4.70;;
3911;SDS011;1971;51.778;10.330;2023-12-20T14:23:13;9.00;;;8.10;;
3911;SDS011;1971;51.778;10.330;2023-12-20T14:25:43;11.83;;;7.13;;
3911;SDS011;1971;51.778;10.330;2023-12-20T14:28:18;6.93;;;6.13;;
3911;SDS011;1971;51.778;10.330;2023-12-20T14:30:48;7.67;;;4.83;;
3911;SDS011;1971;51.778;10.330;2023-12-20T14:33:21;8.30;;;5.00;;
3911;SDS011;1971;51.778;10.330;2023-12-20T14:35:52;5.23;;;3.60;;
3911;SDS011;1971;51.778;10.330;2023-12-20T14:38:23;1.73;;;1.63;;
3911;SDS011;1971;51.778;10.330;2023-12-20T14:40:55;1.23;;;0.80;;
3911;SDS011;1971;51.778;10.330;2023-12-20T14:43:36;1.33;;;1.10;;
3911;SDS011;1971;51.778;10.330;2023-12-20T14:46:16;0.87;;;0.87;;
3911;SDS011;1971;51.778;10.330;2023-12-20T14:48:52;0.60;;;0.60;;
3911;SDS011;1971;51.778;10.330;2023-12-20T14:51:22;1.07;;;0.60;;
3911;SDS011;1971;51.778;10.330;2023-12-20T14:53:52;0.63;;;0.60;;
3911;SDS011;1971;51.778;10.330;2023-12-20T14:56:22;2.80;;;0.73;;
3911;SDS011;1971;51.778;10.330;2023-12-20T14:58:53;0.70;;;0.50;;
3911;SDS011;1971;51.778;10.330;2023-12-20T15:01:27;0.93;;;0.50;;
3911;SDS011;1971;51.778;10.330;2023-12-20T15:04:00;1.53;;;1.17;;
3911;SDS011;1971;51.778;10.330;2023-12-20T15:06:30;1.33;;;0.60;;
3911;SDS011;1971;51.778;10.330;2023-12-20T15:09:01;1.60;;;1.50;;
3911;SDS011;1971;51.778;10.330;2023-12-20T15:11:31;0.83;;;0.80;;
3911;SDS011;1971;51.778;10.330;2023-12-20T15:14:02;1.90;;;0.70;;
3911;SDS011;1971;51.778;10.330;2023-12-20T15:16:33;1.20;;;1.10;;
3911;SDS011;1971;51.778;10.330;2023-12-20T15:19:07;2.90;;;1.00;;
3911;SDS011;1971;51.778;10.330;2023-12-20T15:21:38;3.00;;;1.30;;
3911;SDS011;1971;51.778;10.330;2023-12-20T15:24:14;0.80;;;0.80;;
3911;SDS011;1971;51.778;10.330;2023-12-20T15:26:46;2.60;;;2.03;;
3911;SDS011;1971;51.778;10.330;2023-12-20T15:29:16;3.27;;;2.20;;
3911;SDS011;1971;51.778;10.330;2023-12-20T15:31:46;2.20;;;1.27;;
3911;SDS011;1971;51.778;10.330;2023-12-20T15:34:20;2.77;;;2.30;;